sensor_id;sensor_type;location;lat;lon;timestamp;P1;durP1;ratioP1;P2;durP2;ratioP2
27412;SDS011;14871;52.702;5.230;2023-04-16T00:00:00;11.68;;;2.70;;
27412;SDS011;14871;52.702;5.230;2023-04-16T00:02:28;12.13;;;3.00;;
27412;SDS011;14871;52.702;5.230;2023-04-16T00:04:54;10.45;;;3.22;;
27412;SDS011;14871;52.702;5.230;2023-04-16T00:07:20;13.32;;;3.72;;
27412;SDS011;14871;52.702;5.230;2023-04-16T00:09:45;11.18;;;3.20;;
27412;SDS011;14871;52.702;5.230;2023-04-16T00:12:11;11.32;;;2.85;;
27412;SDS011;14871;52.702;5.230;2023-04-16T00:14:37;12.18;;;3.30;;
27412;SDS011;14871;52.702;5.230;2023-04-16T00:17:03;9.02;;;3.60;;
27412;SDS011;14871;52.702;5.230;2023-04-16T00:19:29;9.93;;;2.88;;
27412;SDS011;14871;52.702;5.230;2023-04-16T00:21:55;8.90;;;3.15;;
27412;SDS011;14871;52.702;5.230;2023-04-16T00:24:20;8.90;;;3.22;;
27412;SDS011;14871;52.702;5.230;2023-04-16T00:26:46;14.30;;;3.60;;
27412;SDS011;14871;52.702;5.230;2023-04-16T00:29:12;8.80;;;3.42;;
27412;SDS011;14871;52.702;5.230;2023-04-16T00:31:37;9.98;;;3.28;;
27412;SDS011;14871;52.702;5.230;2023-04-16T00:34:03;9.82;;;2.85;;
27412;SDS011;14871;52.702;5.230;2023-04-16T00:36:29;10.15;;;3.30;;
27412;SDS011;14871;52.702;5.230;2023-04-16T00:38:57;10.15;;;3.45;;
27412;SDS011;14871;52.702;5.230;2023-04-16T00:41:23;9.77;;;4.18;;
27412;SDS011;14871;52.702;5.230;2023-04-16T00:43:49;9.90;;;3.35;;
27412;SDS011;14871;52.702;5.230;2023-04-16T00:46:15;12.52;;;4.03;;
27412;SDS011;14871;52.702;5.230;2023-04-16T00:48:42;13.35;;;3.75;;
27412;SDS011;14871;52.702;5.230;2023-04-16T00:51:09;12.90;;;4.05;;
27412;SDS011;14871;52.702;5.230;2023-04-16T00:53:35;10.90;;;4.28;;
27412;SDS011;14871;52.702;5.230;2023-04-16T00:56:02;15.02;;;4.88;;
27412;SDS011;14871;52.702;5.230;2023-04-16T00:58:29;12.63;;;4.72;;
27412;SDS011;14871;52.702;5.230;2023-04-16T01:00:55;12.98;;;5.25;;
27412;SDS011;14871;52.702;5.230;2023-04-16T01:03:21;12.35;;;4.57;;
27412;SDS011;14871;52.702;5.230;2023-04-16T01:05:47;11.95;;;4.55;;
27412;SDS011;14871;52.702;5.230;2023-04-16T01:08:19;14.02;;;5.18;;
27412;SDS011;14871;52.702;5.230;2023-04-16T01:10:46;11.90;;;4.95;;
27412;SDS011;14871;52.702;5.230;2023-04-16T01:13:12;13.68;;;5.63;;
27412;SDS011;14871;52.702;5.230;2023-04-16T01:15:38;12.60;;;5.65;;
27412;SDS011;14871;52.702;5.230;2023-04-16T01:18:16;12.55;;;5.10;;
27412;SDS011;14871;52.702;5.230;2023-04-16T01:20:44;13.93;;;6.43;;
27412;SDS011;14871;52.702;5.230;2023-04-16T01:23:10;11.68;;;5.50;;
27412;SDS011;14871;52.702;5.230;2023-04-16T01:25:36;20.38;;;5.28;;
27412;SDS011;14871;52.702;5.230;2023-04-16T01:28:02;15.00;;;5.85;;
27412;SDS011;14871;52.702;5.230;2023-04-16T01:30:28;17.15;;;6.07;;
27412;SDS011;14871;52.702;5.230;2023-04-16T01:32:53;16.83;;;5.82;;
27412;SDS011;14871;52.702;5.230;2023-04-16T01:35:19;16.33;;;6.28;;
27412;SDS011;14871;52.702;5.230;2023-04-16T01:37:45;15.18;;;5.90;;
27412;SDS011;14871;52.702;5.230;2023-04-16T01:40:11;18.83;;;7.22;;
27412;SDS011;14871;52.702;5.230;2023-04-16T01:42:37;17.88;;;7.30;;
27412;SDS011;14871;52.702;5.230;2023-04-16T01:45:03;10.75;;;6.28;;
27412;SDS011;14871;52.702;5.230;2023-04-16T01:47:29;17.02;;;6.45;;
27412;SDS011;14871;52.702;5.230;2023-04-16T01:49:55;12.52;;;6.20;;
27412;SDS011;14871;52.702;5.230;2023-04-16T01:52:21;12.88;;;7.75;;
27412;SDS011;14871;52.702;5.230;2023-04-16T01:54:47;18.05;;;7.88;;
27412;SDS011;14871;52.702;5.230;2023-04-16T01:57:12;15.55;;;8.00;;
27412;SDS011;14871;52.702;5.230;2023-04-16T01:59:38;13.65;;;7.95;;
27412;SDS011;14871;52.702;5.230;2023-04-16T02:02:08;15.77;;;7.75;;
27412;SDS011;14871;52.702;5.230;2023-04-16T02:04:38;17.92;;;9.00;;
27412;SDS011;14871;52.702;5.230;2023-04-16T02:07:05;25.52;;;9.45;;
27412;SDS011;14871;52.702;5.230;2023-04-16T02:09:33;17.58;;;8.27;;
27412;SDS011;14871;52.702;5.230;2023-04-16T02:11:59;19.77;;;9.25;;
27412;SDS011;14871;52.702;5.230;2023-04-16T02:14:27;19.40;;;9.32;;
27412;SDS011;14871;52.702;5.230;2023-04-16T02:16:53;15.70;;;8.85;;
27412;SDS011;14871;52.702;5.230;2023-04-16T02:19:19;21.33;;;8.43;;
27412;SDS011;14871;52.702;5.230;2023-04-16T02:21:45;22.33;;;8.98;;
27412;SDS011;14871;52.702;5.230;2023-04-16T02:24:11;19.55;;;8.95;;
27412;SDS011;14871;52.702;5.230;2023-04-16T02:26:37;24.60;;;9.30;;
27412;SDS011;14871;52.702;5.230;2023-04-16T02:29:03;17.25;;;9.02;;
27412;SDS011;14871;52.702;5.230;2023-04-16T02:31:29;22.75;;;9.57;;
27412;SDS011;14871;52.702;5.230;2023-04-16T02:33:55;20.98;;;9.55;;
27412;SDS011;14871;52.702;5.230;2023-04-16T02:36:21;19.65;;;9.27;;
27412;SDS011;14871;52.702;5.230;2023-04-16T02:38:47;20.77;;;9.55;;
27412;SDS011;14871;52.702;5.230;2023-04-16T02:41:13;22.00;;;9.63;;
27412;SDS011;14871;52.702;5.230;2023-04-16T02:43:39;22.70;;;10.82;;
27412;SDS011;14871;52.702;5.230;2023-04-16T02:46:04;20.00;;;9.80;;
27412;SDS011;14871;52.702;5.230;2023-04-16T02:48:30;24.00;;;10.77;;
27412;SDS011;14871;52.702;5.230;2023-04-16T02:50:56;24.88;;;9.93;;
27412;SDS011;14871;52.702;5.230;2023-04-16T02:53:22;24.48;;;10.43;;
27412;SDS011;14871;52.702;5.230;2023-04-16T02:55:51;24.80;;;9.95;;
27412;SDS011;14871;52.702;5.230;2023-04-16T02:58:19;28.17;;;11.00;;
27412;SDS011;14871;52.702;5.230;2023-04-16T03:00:45;19.50;;;9.50;;
27412;SDS011;14871;52.702;5.230;2023-04-16T03:03:11;26.13;;;10.30;;
27412;SDS011;14871;52.702;5.230;2023-04-16T03:05:37;22.95;;;10.85;;
27412;SDS011;14871;52.702;5.230;2023-04-16T03:08:02;20.98;;;9.90;;
27412;SDS011;14871;52.702;5.230;2023-04-16T03:10:29;20.58;;;10.73;;
27412;SDS011;14871;52.702;5.230;2023-04-16T03:12:55;27.73;;;11.77;;
27412;SDS011;14871;52.702;5.230;2023-04-16T03:15:20;25.75;;;11.45;;
27412;SDS011;14871;52.702;5.230;2023-04-16T03:17:46;22.50;;;10.73;;
27412;SDS011;14871;52.702;5.230;2023-04-16T03:20:12;16.33;;;10.20;;
27412;SDS011;14871;52.702;5.230;2023-04-16T03:22:38;18.85;;;10.43;;
27412;SDS011;14871;52.702;5.230;2023-04-16T03:25:05;24.08;;;11.95;;
27412;SDS011;14871;52.702;5.230;2023-04-16T03:27:32;24.77;;;11.57;;
27412;SDS011;14871;52.702;5.230;2023-04-16T03:29:58;17.80;;;8.82;;
27412;SDS011;14871;52.702;5.230;2023-04-16T03:32:23;16.08;;;8.43;;
27412;SDS011;14871;52.702;5.230;2023-04-16T03:34:49;22.60;;;9.80;;
27412;SDS011;14871;52.702;5.230;2023-04-16T03:37:15;17.83;;;9.80;;
27412;SDS011;14871;52.702;5.230;2023-04-16T03:39:41;16.95;;;9.98;;
27412;SDS011;14871;52.702;5.230;2023-04-16T03:42:06;21.40;;;9.20;;
27412;SDS011;14871;52.702;5.230;2023-04-16T03:44:32;23.27;;;9.68;;
27412;SDS011;14871;52.702;5.230;2023-04-16T03:46:58;16.02;;;8.45;;
27412;SDS011;14871;52.702;5.230;2023-04-16T03:49:24;12.95;;;8.57;;
27412;SDS011;14871;52.702;5.230;2023-04-16T03:51:50;19.88;;;8.63;;
27412;SDS011;14871;52.702;5.230;2023-04-16T03:54:16;20.95;;;8.55;;
27412;SDS011;14871;52.702;5.230;2023-04-16T03:56:41;22.27;;;8.65;;
27412;SDS011;14871;52.702;5.230;2023-04-16T03:59:07;18.45;;;8.13;;
27412;SDS011;14871;52.702;5.230;2023-04-16T04:01:34;14.75;;;7.78;;
27412;SDS011;14871;52.702;5.230;2023-04-16T04:03:59;16.88;;;7.65;;
27412;SDS011;14871;52.702;5.230;2023-04-16T04:06:25;22.77;;;8.52;;
27412;SDS011;14871;52.702;5.230;2023-04-16T04:08:52;21.52;;;8.85;;
27412;SDS011;14871;52.702;5.230;2023-04-16T04:11:18;22.05;;;7.93;;
27412;SDS011;14871;52.702;5.230;2023-04-16T04:13:46;25.80;;;9.15;;
27412;SDS011;14871;52.702;5.230;2023-04-16T04:16:12;21.38;;;10.90;;
27412;SDS011;14871;52.702;5.230;2023-04-16T04:18:37;24.20;;;10.95;;
27412;SDS011;14871;52.702;5.230;2023-04-16T04:21:04;22.50;;;11.13;;
27412;SDS011;14871;52.702;5.230;2023-04-16T04:23:31;23.35;;;10.93;;
27412;SDS011;14871;52.702;5.230;2023-04-16T04:25:56;25.30;;;10.55;;
27412;SDS011;14871;52.702;5.230;2023-04-16T04:28:22;22.10;;;11.15;;
27412;SDS011;14871;52.702;5.230;2023-04-16T04:30:48;22.08;;;12.23;;
27412;SDS011;14871;52.702;5.230;2023-04-16T04:33:13;22.25;;;11.25;;
27412;SDS011;14871;52.702;5.230;2023-04-16T04:35:39;18.70;;;11.43;;
27412;SDS011;14871;52.702;5.230;2023-04-16T04:38:05;24.63;;;11.45;;
27412;SDS011;14871;52.702;5.230;2023-04-16T04:40:31;28.30;;;10.88;;
27412;SDS011;14871;52.702;5.230;2023-04-16T04:42:56;22.58;;;11.88;;
27412;SDS011;14871;52.702;5.230;2023-04-16T04:45:22;26.25;;;11.60;;
27412;SDS011;14871;52.702;5.230;2023-04-16T04:47:50;21.67;;;10.35;;
27412;SDS011;14871;52.702;5.230;2023-04-16T04:50:18;18.90;;;10.73;;
27412;SDS011;14871;52.702;5.230;2023-04-16T04:52:45;25.92;;;11.38;;
27412;SDS011;14871;52.702;5.230;2023-04-16T04:55:11;24.92;;;9.85;;
27412;SDS011;14871;52.702;5.230;2023-04-16T04:57:40;21.63;;;9.27;;
27412;SDS011;14871;52.702;5.230;2023-04-16T05:00:06;16.88;;;9.32;;
27412;SDS011;14871;52.702;5.230;2023-04-16T05:02:32;17.25;;;11.93;;
27412;SDS011;14871;52.702;5.230;2023-04-16T05:04:58;24.20;;;13.43;;
27412;SDS011;14871;52.702;5.230;2023-04-16T05:07:23;23.20;;;14.70;;
27412;SDS011;14871;52.702;5.230;2023-04-16T05:09:49;21.98;;;15.57;;
27412;SDS011;14871;52.702;5.230;2023-04-16T05:12:16;22.40;;;15.25;;
27412;SDS011;14871;52.702;5.230;2023-04-16T05:14:41;25.65;;;16.40;;
27412;SDS011;14871;52.702;5.230;2023-04-16T05:17:07;24.77;;;15.45;;
27412;SDS011;14871;52.702;5.230;2023-04-16T05:19:34;21.00;;;12.55;;
27412;SDS011;14871;52.702;5.230;2023-04-16T05:22:00;17.42;;;10.15;;
27412;SDS011;14871;52.702;5.230;2023-04-16T05:24:27;17.17;;;9.45;;
27412;SDS011;14871;52.702;5.230;2023-04-16T05:26:53;20.23;;;10.60;;
27412;SDS011;14871;52.702;5.230;2023-04-16T05:29:21;18.17;;;10.50;;
27412;SDS011;14871;52.702;5.230;2023-04-16T05:31:47;18.10;;;9.95;;
27412;SDS011;14871;52.702;5.230;2023-04-16T05:34:13;17.38;;;9.98;;
27412;SDS011;14871;52.702;5.230;2023-04-16T05:36:39;18.10;;;10.27;;
27412;SDS011;14871;52.702;5.230;2023-04-16T05:39:05;20.23;;;10.63;;
27412;SDS011;14871;52.702;5.230;2023-04-16T05:41:32;18.92;;;10.55;;
27412;SDS011;14871;52.702;5.230;2023-04-16T05:43:58;18.35;;;9.70;;
27412;SDS011;14871;52.702;5.230;2023-04-16T05:46:24;19.20;;;9.85;;
27412;SDS011;14871;52.702;5.230;2023-04-16T05:48:50;18.38;;;9.02;;
27412;SDS011;14871;52.702;5.230;2023-04-16T05:51:16;15.25;;;8.95;;
27412;SDS011;14871;52.702;5.230;2023-04-16T05:53:41;14.75;;;8.18;;
27412;SDS011;14871;52.702;5.230;2023-04-16T05:56:07;13.45;;;7.47;;
27412;SDS011;14871;52.702;5.230;2023-04-16T05:58:33;12.63;;;7.00;;
27412;SDS011;14871;52.702;5.230;2023-04-16T06:00:59;11.50;;;6.57;;
27412;SDS011;14871;52.702;5.230;2023-04-16T06:03:25;8.48;;;5.68;;
27412;SDS011;14871;52.702;5.230;2023-04-16T06:05:51;9.82;;;6.88;;
27412;SDS011;14871;52.702;5.230;2023-04-16T06:08:17;12.68;;;6.63;;
27412;SDS011;14871;52.702;5.230;2023-04-16T06:10:44;10.95;;;6.60;;
27412;SDS011;14871;52.702;5.230;2023-04-16T06:13:11;12.10;;;6.45;;
27412;SDS011;14871;52.702;5.230;2023-04-16T06:15:37;14.05;;;6.43;;
27412;SDS011;14871;52.702;5.230;2023-04-16T06:18:03;8.13;;;5.72;;
27412;SDS011;14871;52.702;5.230;2023-04-16T06:20:28;9.75;;;5.88;;
27412;SDS011;14871;52.702;5.230;2023-04-16T06:22:55;7.80;;;5.38;;
27412;SDS011;14871;52.702;5.230;2023-04-16T06:25:21;6.47;;;4.57;;
27412;SDS011;14871;52.702;5.230;2023-04-16T06:27:46;8.45;;;4.75;;
27412;SDS011;14871;52.702;5.230;2023-04-16T06:30:13;7.95;;;4.40;;
27412;SDS011;14871;52.702;5.230;2023-04-16T06:32:40;7.50;;;4.57;;
27412;SDS011;14871;52.702;5.230;2023-04-16T06:35:07;7.78;;;4.57;;
27412;SDS011;14871;52.702;5.230;2023-04-16T06:37:33;5.68;;;4.45;;
27412;SDS011;14871;52.702;5.230;2023-04-16T06:39:59;5.68;;;4.18;;
27412;SDS011;14871;52.702;5.230;2023-04-16T06:42:26;8.02;;;4.60;;
27412;SDS011;14871;52.702;5.230;2023-04-16T06:44:52;4.72;;;4.22;;
27412;SDS011;14871;52.702;5.230;2023-04-16T06:47:17;6.28;;;4.40;;
27412;SDS011;14871;52.702;5.230;2023-04-16T06:49:43;7.30;;;4.20;;
27412;SDS011;14871;52.702;5.230;2023-04-16T06:52:09;5.15;;;3.80;;
27412;SDS011;14871;52.702;5.230;2023-04-16T06:54:35;6.07;;;3.92;;
27412;SDS011;14871;52.702;5.230;2023-04-16T06:57:01;4.60;;;3.70;;
27412;SDS011;14871;52.702;5.230;2023-04-16T06:59:26;8.27;;;4.53;;
27412;SDS011;14871;52.702;5.230;2023-04-16T07:01:52;9.98;;;3.50;;
27412;SDS011;14871;52.702;5.230;2023-04-16T07:04:18;5.50;;;3.65;;
27412;SDS011;14871;52.702;5.230;2023-04-16T07:06:44;5.35;;;3.00;;
27412;SDS011;14871;52.702;5.230;2023-04-16T07:09:10;4.47;;;3.33;;
27412;SDS011;14871;52.702;5.230;2023-04-16T07:11:35;5.03;;;3.05;;
27412;SDS011;14871;52.702;5.230;2023-04-16T07:14:01;5.32;;;2.75;;
27412;SDS011;14871;52.702;5.230;2023-04-16T07:16:27;5.63;;;3.33;;
27412;SDS011;14871;52.702;5.230;2023-04-16T07:18:53;6.05;;;4.03;;
27412;SDS011;14871;52.702;5.230;2023-04-16T07:21:19;5.78;;;3.08;;
27412;SDS011;14871;52.702;5.230;2023-04-16T07:23:45;9.65;;;4.03;;
27412;SDS011;14871;52.702;5.230;2023-04-16T07:26:10;7.45;;;4.03;;
27412;SDS011;14871;52.702;5.230;2023-04-16T07:28:36;9.85;;;4.15;;
27412;SDS011;14871;52.702;5.230;2023-04-16T07:31:02;8.27;;;4.22;;
27412;SDS011;14871;52.702;5.230;2023-04-16T07:33:28;7.35;;;4.47;;
27412;SDS011;14871;52.702;5.230;2023-04-16T07:35:53;7.97;;;4.13;;
27412;SDS011;14871;52.702;5.230;2023-04-16T07:38:19;8.52;;;4.00;;
27412;SDS011;14871;52.702;5.230;2023-04-16T07:40:45;7.07;;;4.68;;
27412;SDS011;14871;52.702;5.230;2023-04-16T07:43:12;8.18;;;4.78;;
27412;SDS011;14871;52.702;5.230;2023-04-16T07:45:39;8.93;;;4.82;;
27412;SDS011;14871;52.702;5.230;2023-04-16T07:48:05;9.75;;;5.65;;
27412;SDS011;14871;52.702;5.230;2023-04-16T07:50:31;11.02;;;6.55;;
27412;SDS011;14871;52.702;5.230;2023-04-16T07:52:56;12.98;;;6.50;;
27412;SDS011;14871;52.702;5.230;2023-04-16T07:55:22;10.25;;;6.40;;
27412;SDS011;14871;52.702;5.230;2023-04-16T07:57:48;9.93;;;6.47;;
27412;SDS011;14871;52.702;5.230;2023-04-16T08:00:13;13.82;;;6.82;;
27412;SDS011;14871;52.702;5.230;2023-04-16T08:02:40;10.20;;;7.22;;
27412;SDS011;14871;52.702;5.230;2023-04-16T08:05:07;13.40;;;7.47;;
27412;SDS011;14871;52.702;5.230;2023-04-16T08:07:32;11.60;;;7.18;;
27412;SDS011;14871;52.702;5.230;2023-04-16T08:09:58;14.45;;;7.60;;
27412;SDS011;14871;52.702;5.230;2023-04-16T08:12:24;16.70;;;9.32;;
27412;SDS011;14871;52.702;5.230;2023-04-16T08:14:50;17.35;;;10.05;;
27412;SDS011;14871;52.702;5.230;2023-04-16T08:17:16;19.75;;;11.02;;
27412;SDS011;14871;52.702;5.230;2023-04-16T08:19:42;16.40;;;10.40;;
27412;SDS011;14871;52.702;5.230;2023-04-16T08:22:09;17.63;;;11.25;;
27412;SDS011;14871;52.702;5.230;2023-04-16T08:24:38;23.65;;;12.52;;
27412;SDS011;14871;52.702;5.230;2023-04-16T08:27:04;20.10;;;12.15;;
27412;SDS011;14871;52.702;5.230;2023-04-16T08:29:30;25.65;;;12.10;;
27412;SDS011;14871;52.702;5.230;2023-04-16T08:31:57;24.05;;;12.15;;
27412;SDS011;14871;52.702;5.230;2023-04-16T08:34:23;26.65;;;11.98;;
27412;SDS011;14871;52.702;5.230;2023-04-16T08:36:49;22.73;;;13.07;;
27412;SDS011;14871;52.702;5.230;2023-04-16T08:39:14;24.45;;;11.60;;
27412;SDS011;14871;52.702;5.230;2023-04-16T08:41:41;21.58;;;11.25;;
27412;SDS011;14871;52.702;5.230;2023-04-16T08:44:30;18.38;;;11.13;;
27412;SDS011;14871;52.702;5.230;2023-04-16T08:46:57;20.80;;;10.35;;
27412;SDS011;14871;52.702;5.230;2023-04-16T08:49:24;19.73;;;10.57;;
27412;SDS011;14871;52.702;5.230;2023-04-16T08:51:52;23.40;;;10.40;;
27412;SDS011;14871;52.702;5.230;2023-04-16T08:54:37;18.83;;;10.43;;
27412;SDS011;14871;52.702;5.230;2023-04-16T08:57:10;20.17;;;10.23;;
27412;SDS011;14871;52.702;5.230;2023-04-16T08:59:44;19.08;;;10.45;;
27412;SDS011;14871;52.702;5.230;2023-04-16T09:02:11;16.27;;;9.35;;
27412;SDS011;14871;52.702;5.230;2023-04-16T09:04:37;15.40;;;9.52;;
27412;SDS011;14871;52.702;5.230;2023-04-16T09:07:05;16.42;;;8.68;;
27412;SDS011;14871;52.702;5.230;2023-04-16T09:09:35;13.48;;;7.72;;
27412;SDS011;14871;52.702;5.230;2023-04-16T09:12:03;11.30;;;6.80;;
27412;SDS011;14871;52.702;5.230;2023-04-16T09:14:29;11.25;;;6.78;;
27412;SDS011;14871;52.702;5.230;2023-04-16T09:16:57;11.05;;;6.93;;
27412;SDS011;14871;52.702;5.230;2023-04-16T09:19:30;14.18;;;7.00;;
27412;SDS011;14871;52.702;5.230;2023-04-16T09:21:55;13.27;;;7.20;;
27412;SDS011;14871;52.702;5.230;2023-04-16T09:24:27;15.52;;;7.38;;
27412;SDS011;14871;52.702;5.230;2023-04-16T09:26:53;14.57;;;7.65;;
27412;SDS011;14871;52.702;5.230;2023-04-16T09:29:32;14.45;;;7.72;;
27412;SDS011;14871;52.702;5.230;2023-04-16T09:32:00;18.17;;;8.80;;
27412;SDS011;14871;52.702;5.230;2023-04-16T09:34:28;15.43;;;8.68;;
27412;SDS011;14871;52.702;5.230;2023-04-16T09:36:55;18.40;;;9.38;;
27412;SDS011;14871;52.702;5.230;2023-04-16T09:39:56;19.85;;;9.40;;
27412;SDS011;14871;52.702;5.230;2023-04-16T09:42:24;22.25;;;10.05;;
27412;SDS011;14871;52.702;5.230;2023-04-16T09:44:53;18.95;;;11.32;;
27412;SDS011;14871;52.702;5.230;2023-04-16T09:47:20;27.23;;;11.82;;
27412;SDS011;14871;52.702;5.230;2023-04-16T09:49:49;28.77;;;13.70;;
27412;SDS011;14871;52.702;5.230;2023-04-16T09:52:17;27.75;;;13.63;;
27412;SDS011;14871;52.702;5.230;2023-04-16T09:54:47;32.15;;;14.07;;
27412;SDS011;14871;52.702;5.230;2023-04-16T09:57:22;29.42;;;15.48;;
27412;SDS011;14871;52.702;5.230;2023-04-16T09:59:52;30.25;;;15.85;;
27412;SDS011;14871;52.702;5.230;2023-04-16T10:02:30;31.13;;;15.82;;
27412;SDS011;14871;52.702;5.230;2023-04-16T10:04:57;34.22;;;16.67;;
27412;SDS011;14871;52.702;5.230;2023-04-16T10:07:30;30.02;;;14.65;;
27412;SDS011;14871;52.702;5.230;2023-04-16T10:09:58;35.67;;;16.50;;
27412;SDS011;14871;52.702;5.230;2023-04-16T10:12:24;35.15;;;16.35;;
27412;SDS011;14871;52.702;5.230;2023-04-16T10:14:51;36.97;;;16.17;;
27412;SDS011;14871;52.702;5.230;2023-04-16T10:17:17;36.00;;;15.90;;
27412;SDS011;14871;52.702;5.230;2023-04-16T10:19:43;36.83;;;16.38;;
27412;SDS011;14871;52.702;5.230;2023-04-16T10:22:10;39.72;;;16.75;;
27412;SDS011;14871;52.702;5.230;2023-04-16T10:24:36;36.65;;;16.05;;
27412;SDS011;14871;52.702;5.230;2023-04-16T10:27:02;36.33;;;16.00;;
27412;SDS011;14871;52.702;5.230;2023-04-16T10:29:29;33.83;;;15.45;;
27412;SDS011;14871;52.702;5.230;2023-04-16T10:31:55;31.35;;;15.30;;
27412;SDS011;14871;52.702;5.230;2023-04-16T10:34:22;35.58;;;15.20;;
27412;SDS011;14871;52.702;5.230;2023-04-16T10:36:50;40.65;;;16.13;;
27412;SDS011;14871;52.702;5.230;2023-04-16T10:39:18;34.63;;;15.10;;
27412;SDS011;14871;52.702;5.230;2023-04-16T10:41:46;32.17;;;14.90;;
27412;SDS011;14871;52.702;5.230;2023-04-16T10:44:12;29.88;;;13.88;;
27412;SDS011;14871;52.702;5.230;2023-04-16T10:46:42;29.13;;;13.73;;
27412;SDS011;14871;52.702;5.230;2023-04-16T10:51:40;30.58;;;12.93;;
27412;SDS011;14871;52.702;5.230;2023-04-16T10:56:40;27.25;;;12.30;;
27412;SDS011;14871;52.702;5.230;2023-04-16T10:59:09;29.58;;;12.15;;
27412;SDS011;14871;52.702;5.230;2023-04-16T11:01:36;31.30;;;12.13;;
27412;SDS011;14871;52.702;5.230;2023-04-16T11:04:26;26.50;;;10.98;;
27412;SDS011;14871;52.702;5.230;2023-04-16T11:07:01;20.23;;;10.40;;
27412;SDS011;14871;52.702;5.230;2023-04-16T11:12:42;18.30;;;9.85;;
27412;SDS011;14871;52.702;5.230;2023-04-16T11:15:11;22.80;;;9.75;;
27412;SDS011;14871;52.702;5.230;2023-04-16T11:17:50;21.25;;;10.27;;
27412;SDS011;14871;52.702;5.230;2023-04-16T11:20:17;22.40;;;10.25;;
27412;SDS011;14871;52.702;5.230;2023-04-16T11:22:50;26.33;;;10.85;;
27412;SDS011;14871;52.702;5.230;2023-04-16T11:25:27;19.63;;;10.00;;
27412;SDS011;14871;52.702;5.230;2023-04-16T11:27:54;22.17;;;10.65;;
27412;SDS011;14871;52.702;5.230;2023-04-16T11:30:31;25.27;;;10.25;;
27412;SDS011;14871;52.702;5.230;2023-04-16T11:32:58;24.02;;;10.63;;
27412;SDS011;14871;52.702;5.230;2023-04-16T11:35:26;19.25;;;10.27;;
27412;SDS011;14871;52.702;5.230;2023-04-16T11:37:55;21.73;;;10.68;;
27412;SDS011;14871;52.702;5.230;2023-04-16T11:40:22;29.83;;;11.23;;
27412;SDS011;14871;52.702;5.230;2023-04-16T11:42:48;25.27;;;10.57;;
27412;SDS011;14871;52.702;5.230;2023-04-16T11:45:13;22.83;;;11.32;;
27412;SDS011;14871;52.702;5.230;2023-04-16T11:47:43;29.08;;;12.65;;
27412;SDS011;14871;52.702;5.230;2023-04-16T11:50:23;34.03;;;12.40;;
27412;SDS011;14871;52.702;5.230;2023-04-16T11:52:51;29.15;;;12.00;;
27412;SDS011;14871;52.702;5.230;2023-04-16T11:55:27;24.38;;;12.13;;
27412;SDS011;14871;52.702;5.230;2023-04-16T12:00:20;25.00;;;10.93;;
27412;SDS011;14871;52.702;5.230;2023-04-16T12:02:49;24.92;;;10.68;;
27412;SDS011;14871;52.702;5.230;2023-04-16T12:08:03;26.05;;;12.93;;
27412;SDS011;14871;52.702;5.230;2023-04-16T12:10:31;22.17;;;12.43;;
27412;SDS011;14871;52.702;5.230;2023-04-16T12:13:13;27.33;;;12.57;;
27412;SDS011;14871;52.702;5.230;2023-04-16T12:15:47;31.77;;;13.07;;
27412;SDS011;14871;52.702;5.230;2023-04-16T12:18:14;24.42;;;12.07;;
27412;SDS011;14871;52.702;5.230;2023-04-16T12:20:41;24.42;;;11.20;;
27412;SDS011;14871;52.702;5.230;2023-04-16T12:23:07;23.52;;;11.82;;
27412;SDS011;14871;52.702;5.230;2023-04-16T12:25:33;28.45;;;11.50;;
27412;SDS011;14871;52.702;5.230;2023-04-16T12:27:59;28.50;;;11.63;;
27412;SDS011;14871;52.702;5.230;2023-04-16T12:30:26;24.73;;;12.15;;
27412;SDS011;14871;52.702;5.230;2023-04-16T12:35:38;26.90;;;11.55;;
27412;SDS011;14871;52.702;5.230;2023-04-16T12:38:06;23.88;;;11.93;;
27412;SDS011;14871;52.702;5.230;2023-04-16T12:40:32;25.40;;;12.07;;
27412;SDS011;14871;52.702;5.230;2023-04-16T12:43:01;27.08;;;12.38;;
27412;SDS011;14871;52.702;5.230;2023-04-16T12:45:27;23.05;;;12.70;;
27412;SDS011;14871;52.702;5.230;2023-04-16T12:47:54;20.52;;;12.88;;
27412;SDS011;14871;52.702;5.230;2023-04-16T12:50:21;21.38;;;11.43;;
27412;SDS011;14871;52.702;5.230;2023-04-16T12:52:47;25.77;;;11.85;;
27412;SDS011;14871;52.702;5.230;2023-04-16T12:55:13;24.77;;;11.95;;
27412;SDS011;14871;52.702;5.230;2023-04-16T12:57:39;22.83;;;13.00;;
27412;SDS011;14871;52.702;5.230;2023-04-16T13:00:05;24.13;;;11.77;;
27412;SDS011;14871;52.702;5.230;2023-04-16T13:02:34;26.25;;;12.55;;
27412;SDS011;14871;52.702;5.230;2023-04-16T13:05:00;28.27;;;12.35;;
27412;SDS011;14871;52.702;5.230;2023-04-16T13:07:26;23.65;;;12.98;;
27412;SDS011;14871;52.702;5.230;2023-04-16T13:09:52;24.45;;;13.45;;
27412;SDS011;14871;52.702;5.230;2023-04-16T13:12:18;29.85;;;13.25;;
27412;SDS011;14871;52.702;5.230;2023-04-16T13:14:44;28.23;;;13.82;;
27412;SDS011;14871;52.702;5.230;2023-04-16T13:17:10;33.03;;;14.55;;
27412;SDS011;14871;52.702;5.230;2023-04-16T13:19:35;30.95;;;14.77;;
27412;SDS011;14871;52.702;5.230;2023-04-16T13:22:01;32.88;;;15.88;;
27412;SDS011;14871;52.702;5.230;2023-04-16T13:24:27;29.10;;;15.30;;
27412;SDS011;14871;52.702;5.230;2023-04-16T13:26:54;27.20;;;14.73;;
27412;SDS011;14871;52.702;5.230;2023-04-16T13:29:20;27.55;;;14.38;;
27412;SDS011;14871;52.702;5.230;2023-04-16T13:31:46;26.48;;;14.05;;
27412;SDS011;14871;52.702;5.230;2023-04-16T13:34:13;28.25;;;15.95;;
27412;SDS011;14871;52.702;5.230;2023-04-16T13:36:39;28.73;;;14.25;;
27412;SDS011;14871;52.702;5.230;2023-04-16T13:39:04;28.48;;;14.98;;
27412;SDS011;14871;52.702;5.230;2023-04-16T13:41:34;30.20;;;14.70;;
27412;SDS011;14871;52.702;5.230;2023-04-16T13:44:01;26.20;;;14.50;;
27412;SDS011;14871;52.702;5.230;2023-04-16T13:46:26;23.75;;;15.02;;
27412;SDS011;14871;52.702;5.230;2023-04-16T13:48:53;20.75;;;13.43;;
27412;SDS011;14871;52.702;5.230;2023-04-16T13:51:19;28.63;;;14.68;;
27412;SDS011;14871;52.702;5.230;2023-04-16T13:53:45;24.15;;;14.02;;
27412;SDS011;14871;52.702;5.230;2023-04-16T13:56:11;24.23;;;14.10;;
27412;SDS011;14871;52.702;5.230;2023-04-16T13:58:37;30.38;;;14.82;;
27412;SDS011;14871;52.702;5.230;2023-04-16T14:01:03;24.38;;;14.43;;
27412;SDS011;14871;52.702;5.230;2023-04-16T14:03:29;24.25;;;14.20;;
27412;SDS011;14871;52.702;5.230;2023-04-16T14:05:56;30.63;;;15.18;;
27412;SDS011;14871;52.702;5.230;2023-04-16T14:08:22;32.30;;;14.57;;
27412;SDS011;14871;52.702;5.230;2023-04-16T14:10:48;32.65;;;14.43;;
27412;SDS011;14871;52.702;5.230;2023-04-16T14:13:15;33.13;;;14.82;;
27412;SDS011;14871;52.702;5.230;2023-04-16T14:15:43;30.27;;;15.95;;
27412;SDS011;14871;52.702;5.230;2023-04-16T14:18:09;33.17;;;14.82;;
27412;SDS011;14871;52.702;5.230;2023-04-16T14:20:35;30.75;;;14.65;;
27412;SDS011;14871;52.702;5.230;2023-04-16T14:23:01;30.30;;;14.43;;
27412;SDS011;14871;52.702;5.230;2023-04-16T14:25:27;32.40;;;14.93;;
27412;SDS011;14871;52.702;5.230;2023-04-16T14:27:53;27.65;;;15.15;;
27412;SDS011;14871;52.702;5.230;2023-04-16T14:30:19;34.58;;;14.95;;
27412;SDS011;14871;52.702;5.230;2023-04-16T14:32:44;36.25;;;17.00;;
27412;SDS011;14871;52.702;5.230;2023-04-16T14:35:10;34.47;;;15.23;;
27412;SDS011;14871;52.702;5.230;2023-04-16T14:37:36;26.45;;;15.02;;
27412;SDS011;14871;52.702;5.230;2023-04-16T14:40:03;30.30;;;14.48;;
27412;SDS011;14871;52.702;5.230;2023-04-16T14:42:32;31.77;;;15.98;;
27412;SDS011;14871;52.702;5.230;2023-04-16T14:44:58;25.20;;;13.85;;